sensor_id;sensor_type;location;lat;lon;timestamp;pressure;altitude;pressure_sealevel;temperature;humidity
14594;BME280;7383;52.354;9.756;2023-04-27T00:01:51;-12630.41;;;10.05;100.00
14594;BME280;7383;52.354;9.756;2023-04-27T00:04:20;-12630.16;;;10.04;100.00
14594;BME280;7383;52.354;9.756;2023-04-27T00:06:47;-12630.16;;;10.04;100.00
14594;BME280;7383;52.354;9.756;2023-04-27T00:09:13;-12629.38;;;9.99;100.00
14594;BME280;7383;52.354;9.756;2023-04-27T00:11:42;-12629.72;;;10.01;100.00
14594;BME280;7383;52.354;9.756;2023-04-27T00:14:11;-12629.19;;;9.98;100.00
14594;BME280;7383;52.354;9.756;2023-04-27T00:16:38;-12628.84;;;9.96;100.00
14594;BME280;7383;52.354;9.756;2023-04-27T00:19:05;-12628.84;;;9.96;100.00
14594;BME280;7383;52.354;9.756;2023-04-27T00:21:34;-12628.94;;;9.97;100.00
14594;BME280;7383;52.354;9.756;2023-04-27T00:24:01;-12628.50;;;9.94;100.00
14594;BME280;7383;52.354;9.756;2023-04-27T00:26:27;-12627.44;;;9.88;100.00
14594;BME280;7383;52.354;9.756;2023-04-27T00:28:55;-12626.81;;;9.84;100.00
14594;BME280;7383;52.354;9.756;2023-04-27T00:31:24;-12627.34;;;9.87;100.00
14594;BME280;7383;52.354;9.756;2023-04-27T00:33:50;-12627.88;;;9.91;100.00
14594;BME280;7383;52.354;9.756;2023-04-27T00:36:17;-12626.47;;;9.82;100.00
14594;BME280;7383;52.354;9.756;2023-04-27T00:38:45;-12626.81;;;9.84;100.00
14594;BME280;7383;52.354;9.756;2023-04-27T00:41:12;-12626.91;;;9.85;100.00
14594;BME280;7383;52.354;9.756;2023-04-27T00:43:41;-12626.47;;;9.82;100.00
14594;BME280;7383;52.354;9.756;2023-04-27T00:46:10;-12626.66;;;9.83;100.00
14594;BME280;7383;52.354;9.756;2023-04-27T00:48:40;-12626.13;;;9.80;100.00
14594;BME280;7383;52.354;9.756;2023-04-27T00:51:11;-12626.03;;;9.80;100.00
14594;BME280;7383;52.354;9.756;2023-04-27T00:53:37;-12625.97;;;9.79;100.00
14594;BME280;7383;52.354;9.756;2023-04-27T00:56:07;-12625.88;;;9.79;100.00
14594;BME280;7383;52.354;9.756;2023-04-27T00:58:34;-12625.16;;;9.75;100.00
14594;BME280;7383;52.354;9.756;2023-04-27T01:01:00;-12624.81;;;9.73;100.00
14594;BME280;7383;52.354;9.756;2023-04-27T01:03:29;-12624.47;;;9.71;100.00
14594;BME280;7383;52.354;9.756;2023-04-27T01:05:58;-12622.63;;;9.60;100.00
14594;BME280;7383;52.354;9.756;2023-04-27T01:08:26;-12623.50;;;9.65;100.00
14594;BME280;7383;52.354;9.756;2023-04-27T01:10:57;-12622.19;;;9.58;100.00
14594;BME280;7383;52.354;9.756;2023-04-27T01:13:29;-12620.88;;;9.50;100.00
14594;BME280;7383;52.354;9.756;2023-04-27T01:15:58;-12619.47;;;9.42;100.00
14594;BME280;7383;52.354;9.756;2023-04-27T01:18:24;-12619.41;;;9.42;100.00
14594;BME280;7383;52.354;9.756;2023-04-27T01:20:51;-12619.56;;;9.43;100.00
14594;BME280;7383;52.354;9.756;2023-04-27T01:23:23;-12618.53;;;9.36;100.00
14594;BME280;7383;52.354;9.756;2023-04-27T01:25:52;-12618.44;;;9.36;100.00
14594;BME280;7383;52.354;9.756;2023-04-27T01:28:19;-12618.69;;;9.37;100.00
14594;BME280;7383;52.354;9.756;2023-04-27T01:30:46;-12619.31;;;9.41;100.00
14594;BME280;7383;52.354;9.756;2023-04-27T01:33:13;-12619.13;;;9.40;100.00
14594;BME280;7383;52.354;9.756;2023-04-27T01:35:41;-12619.56;;;9.43;100.00
14594;BME280;7383;52.354;9.756;2023-04-27T01:38:11;-12619.13;;;9.40;100.00
14594;BME280;7383;52.354;9.756;2023-04-27T01:40:40;-12618.59;;;9.37;100.00
14594;BME280;7383;52.354;9.756;2023-04-27T01:43:06;-12617.81;;;9.32;100.00
14594;BME280;7383;52.354;9.756;2023-04-27T01:45:33;-12617.47;;;9.30;100.00
14594;BME280;7383;52.354;9.756;2023-04-27T01:47:59;-12617.13;;;9.28;100.00
14594;BME280;7383;52.354;9.756;2023-04-27T01:50:26;-12617.22;;;9.29;100.00
14594;BME280;7383;52.354;9.756;2023-04-27T01:52:53;-12616.41;;;9.24;100.00
14594;BME280;7383;52.354;9.756;2023-04-27T01:55:19;-12616.16;;;9.23;100.00
14594;BME280;7383;52.354;9.756;2023-04-27T01:57:47;-12616.69;;;9.26;100.00
14594;BME280;7383;52.354;9.756;2023-04-27T02:00:14;-12616.50;;;9.25;100.00
14594;BME280;7383;52.354;9.756;2023-04-27T02:02:41;-12615.53;;;9.19;100.00
14594;BME280;7383;52.354;9.756;2023-04-27T02:05:09;-12614.66;;;9.14;100.00
14594;BME280;7383;52.354;9.756;2023-04-27T02:07:35;-12613.69;;;9.09;100.00
14594;BME280;7383;52.354;9.756;2023-04-27T02:10:02;-12613.63;;;9.08;100.00
14594;BME280;7383;52.354;9.756;2023-04-27T02:12:29;-12612.91;;;9.04;100.00
14594;BME280;7383;52.354;9.756;2023-04-27T02:14:57;-12612.38;;;9.01;100.00
14594;BME280;7383;52.354;9.756;2023-04-27T02:17:23;-12612.13;;;9.00;100.00
14594;BME280;7383;52.354;9.756;2023-04-27T02:19:50;-12612.03;;;8.99;100.00
14594;BME280;7383;52.354;9.756;2023-04-27T02:22:16;-12612.13;;;9.00;100.00
14594;BME280;7383;52.354;9.756;2023-04-27T02:24:43;-12610.72;;;8.92;100.00
14594;BME280;7383;52.354;9.756;2023-04-27T02:27:10;-12610.13;;;8.88;100.00
14594;BME280;7383;52.354;9.756;2023-04-27T02:29:37;-12609.06;;;8.82;100.00
14594;BME280;7383;52.354;9.756;2023-04-27T02:32:05;-12608.72;;;8.80;100.00
14594;BME280;7383;52.354;9.756;2023-04-27T02:34:33;-12608.44;;;8.78;100.00
14594;BME280;7383;52.354;9.756;2023-04-27T02:37:00;-12608.09;;;8.76;100.00
14594;BME280;7383;52.354;9.756;2023-04-27T02:39:26;-12607.75;;;8.74;100.00
14594;BME280;7383;52.354;9.756;2023-04-27T02:41:53;-12606.34;;;8.66;100.00
14594;BME280;7383;52.354;9.756;2023-04-27T02:44:19;-12606.53;;;8.67;100.00
14594;BME280;7383;52.354;9.756;2023-04-27T02:46:46;-12606.34;;;8.66;100.00
14594;BME280;7383;52.354;9.756;2023-04-27T02:49:14;-12606.34;;;8.66;100.00
14594;BME280;7383;52.354;9.756;2023-04-27T02:51:41;-12605.56;;;8.62;100.00
14594;BME280;7383;52.354;9.756;2023-04-27T02:54:08;-12605.66;;;8.62;100.00
14594;BME280;7383;52.354;9.756;2023-04-27T02:56:35;-12606.09;;;8.65;100.00
14594;BME280;7383;52.354;9.756;2023-04-27T02:59:02;-12604.78;;;8.57;100.00
14594;BME280;7383;52.354;9.756;2023-04-27T03:01:28;-12605.03;;;8.59;100.00
14594;BME280;7383;52.354;9.756;2023-04-27T03:03:55;-12604.84;;;8.58;100.00
14594;BME280;7383;52.354;9.756;2023-04-27T03:06:23;-12605.31;;;8.60;100.00
14594;BME280;7383;52.354;9.756;2023-04-27T03:08:50;-12605.38;;;8.61;100.00
14594;BME280;7383;52.354;9.756;2023-04-27T03:11:17;-12605.03;;;8.59;100.00
14594;BME280;7383;52.354;9.756;2023-04-27T03:13:45;-12605.03;;;8.59;100.00
14594;BME280;7383;52.354;9.756;2023-04-27T03:16:11;-12603.91;;;8.52;100.00
14594;BME280;7383;52.354;9.756;2023-04-27T03:18:38;-12603.47;;;8.50;100.00
14594;BME280;7383;52.354;9.756;2023-04-27T03:21:06;-12603.72;;;8.51;100.00
14594;BME280;7383;52.354;9.756;2023-04-27T03:23:35;-12604.16;;;8.54;100.00
14594;BME280;7383;52.354;9.756;2023-04-27T03:26:05;-12603.38;;;8.49;100.00
14594;BME280;7383;52.354;9.756;2023-04-27T03:28:32;-12603.03;;;8.47;100.00
14594;BME280;7383;52.354;9.756;2023-04-27T03:30:58;-12603.63;;;8.51;100.00
14594;BME280;7383;52.354;9.756;2023-04-27T03:33:25;-12602.84;;;8.46;100.00
14594;BME280;7383;52.354;9.756;2023-04-27T03:35:56;-12602.75;;;8.46;100.00
14594;BME280;7383;52.354;9.756;2023-04-27T03:38:23;-12601.97;;;8.41;100.00
14594;BME280;7383;52.354;9.756;2023-04-27T03:40:51;-12601.63;;;8.39;100.00
14594;BME280;7383;52.354;9.756;2023-04-27T03:43:18;-12601.34;;;8.37;100.00
14594;BME280;7383;52.354;9.756;2023-04-27T03:45:46;-12600.91;;;8.35;100.00
14594;BME280;7383;52.354;9.756;2023-04-27T03:48:13;-12601.25;;;8.37;100.00
14594;BME280;7383;52.354;9.756;2023-04-27T03:50:43;-12600.38;;;8.32;100.00
14594;BME280;7383;52.354;9.756;2023-04-27T03:53:12;-12600.03;;;8.30;100.00
14594;BME280;7383;52.354;9.756;2023-04-27T03:55:40;-12599.59;;;8.27;100.00
14594;BME280;7383;52.354;9.756;2023-04-27T03:58:09;-12599.34;;;8.26;100.00
14594;BME280;7383;52.354;9.756;2023-04-27T04:00:37;-12598.47;;;8.21;100.00
14594;BME280;7383;52.354;9.756;2023-04-27T04:03:03;-12598.28;;;8.20;100.00
14594;BME280;7383;52.354;9.756;2023-04-27T04:05:30;-12596.97;;;8.12;100.00
14594;BME280;7383;52.354;9.756;2023-04-27T04:07:57;-12597.06;;;8.13;100.00
14594;BME280;7383;52.354;9.756;2023-04-27T04:10:24;-12597.22;;;8.14;100.00
14594;BME280;7383;52.354;9.756;2023-04-27T04:12:52;-12597.84;;;8.17;100.00
14594;BME280;7383;52.354;9.756;2023-04-27T04:15:21;-12597.94;;;8.18;100.00
14594;BME280;7383;52.354;9.756;2023-04-27T04:17:47;-12597.22;;;8.14;100.00
14594;BME280;7383;52.354;9.756;2023-04-27T04:20:14;65156.72;;;-143.30;100.00
14594;BME280;7383;52.354;9.756;2023-04-27T04:22:41;65156.72;;;-143.30;100.00
14594;BME280;7383;52.354;9.756;2023-04-27T04:25:08;65156.72;;;-143.30;100.00
14594;BME280;7383;52.354;9.756;2023-04-27T04:27:35;65156.72;;;-143.30;100.00
14594;BME280;7383;52.354;9.756;2023-04-27T04:30:04;-12596.19;;;8.08;100.00
14594;BME280;7383;52.354;9.756;2023-04-27T04:32:33;-12597.31;;;8.14;100.00
14594;BME280;7383;52.354;9.756;2023-04-27T04:35:03;-12596.97;;;8.12;100.00
14594;BME280;7383;52.354;9.756;2023-04-27T04:37:32;-12597.59;;;8.16;100.00
14594;BME280;7383;52.354;9.756;2023-04-27T04:39:58;-12597.75;;;8.17;100.00
14594;BME280;7383;52.354;9.756;2023-04-27T04:42:27;-12598.38;;;8.20;100.00
14594;BME280;7383;52.354;9.756;2023-04-27T04:44:55;-12597.59;;;8.16;100.00
14594;BME280;7383;52.354;9.756;2023-04-27T04:47:22;-12597.06;;;8.13;100.00
14594;BME280;7383;52.354;9.756;2023-04-27T04:49:50;-12597.59;;;8.16;100.00
14594;BME280;7383;52.354;9.756;2023-04-27T04:52:17;-12598.09;;;8.19;100.00
14594;BME280;7383;52.354;9.756;2023-04-27T04:54:44;-12595.81;;;8.06;100.00
14594;BME280;7383;52.354;9.756;2023-04-27T04:57:11;-12596.53;;;8.10;100.00
14594;BME280;7383;52.354;9.756;2023-04-27T04:59:37;-12596.53;;;8.10;100.00
14594;BME280;7383;52.354;9.756;2023-04-27T05:02:07;-12597.22;;;8.14;100.00
14594;BME280;7383;52.354;9.756;2023-04-27T05:04:36;-12597.06;;;8.13;100.00
14594;BME280;7383;52.354;9.756;2023-04-27T05:07:06;-12598.72;;;8.22;100.00
14594;BME280;7383;52.354;9.756;2023-04-27T05:09:36;-12598.72;;;8.22;100.00
14594;BME280;7383;52.354;9.756;2023-04-27T05:12:08;-12597.84;;;8.17;100.00
14594;BME280;7383;52.354;9.756;2023-04-27T05:15:14;-12597.75;;;8.17;100.00
14594;BME280;7383;52.354;9.756;2023-04-27T05:18:02;-12598.09;;;8.19;100.00
14594;BME280;7383;52.354;9.756;2023-04-27T05:20:55;65156.72;;;-143.30;100.00
14594;BME280;7383;52.354;9.756;2023-04-27T05:23:28;65156.72;;;-143.30;100.00
14594;BME280;7383;52.354;9.756;2023-04-27T05:26:34;-12598.09;;;8.19;100.00
14594;BME280;7383;52.354;9.756;2023-04-27T05:29:12;65156.72;;;-143.30;100.00
14594;BME280;7383;52.354;9.756;2023-04-27T05:31:42;65156.72;;;-143.30;100.00
14594;BME280;7383;52.354;9.756;2023-04-27T05:34:09;65156.72;;;-143.30;100.00
14594;BME280;7383;52.354;9.756;2023-04-27T05:36:40;65156.72;;;-143.30;100.00
14594;BME280;7383;52.354;9.756;2023-04-27T05:39:28;65156.72;;;-143.30;100.00
14594;BME280;7383;52.354;9.756;2023-04-27T05:41:57;65156.72;;;-143.30;100.00
14594;BME280;7383;52.354;9.756;2023-04-27T05:44:28;65156.72;;;-143.30;100.00
14594;BME280;7383;52.354;9.756;2023-04-27T05:46:55;65156.72;;;-143.30;100.00
14594;BME280;7383;52.354;9.756;2023-04-27T05:49:22;65156.72;;;-143.30;100.00
14594;BME280;7383;52.354;9.756;2023-04-27T05:51:49;65156.72;;;-143.30;100.00
14594;BME280;7383;52.354;9.756;2023-04-27T05:54:18;65156.72;;;-143.30;100.00
14594;BME280;7383;52.354;9.756;2023-04-27T05:56:49;-12606.16;;;8.65;100.00
14594;BME280;7383;52.354;9.756;2023-04-27T05:59:16;65156.72;;;-143.30;100.00
14594;BME280;7383;52.354;9.756;2023-04-27T06:01:43;65156.72;;;-143.30;100.00
14594;BME280;7383;52.354;9.756;2023-04-27T06:04:10;-12608.63;;;8.79;100.00
14594;BME280;7383;52.354;9.756;2023-04-27T06:06:39;-12609.59;;;8.85;100.00
14594;BME280;7383;52.354;9.756;2023-04-27T06:09:06;-12610.56;;;8.90;100.00
14594;BME280;7383;52.354;9.756;2023-04-27T06:11:32;-12611.34;;;8.95;100.00
14594;BME280;7383;52.354;9.756;2023-04-27T06:14:00;-12611.69;;;8.97;100.00
14594;BME280;7383;52.354;9.756;2023-04-27T06:16:27;-12611.78;;;8.98;100.00
14594;BME280;7383;52.354;9.756;2023-04-27T06:18:56;-12611.06;;;8.94;100.00
14594;BME280;7383;52.354;9.756;2023-04-27T06:21:23;-12610.56;;;8.90;100.00
14594;BME280;7383;52.354;9.756;2023-04-27T06:23:50;-12611.16;;;8.94;100.00
14594;BME280;7383;52.354;9.756;2023-04-27T06:26:17;-12611.78;;;8.98;100.00
14594;BME280;7383;52.354;9.756;2023-04-27T06:28:43;-12612.38;;;9.01;100.00
14594;BME280;7383;52.354;9.756;2023-04-27T06:31:11;-12613.34;;;9.07;100.00
14594;BME280;7383;52.354;9.756;2023-04-27T06:33:38;-12614.06;;;9.11;100.00
14594;BME280;7383;52.354;9.756;2023-04-27T06:36:04;-12614.84;;;9.15;100.00
14594;BME280;7383;52.354;9.756;2023-04-27T06:38:31;-12615.38;;;9.18;100.00
14594;BME280;7383;52.354;9.756;2023-04-27T06:40:57;-12616.34;;;9.24;100.00
14594;BME280;7383;52.354;9.756;2023-04-27T06:43:36;-12616.94;;;9.27;100.00
14594;BME280;7383;52.354;9.756;2023-04-27T06:46:33;-12617.03;;;9.28;100.00
14594;BME280;7383;52.354;9.756;2023-04-27T06:48:59;-12616.84;;;9.27;100.00
14594;BME280;7383;52.354;9.756;2023-04-27T06:51:29;-12617.13;;;9.28;100.00
14594;BME280;7383;52.354;9.756;2023-04-27T06:54:16;-12617.56;;;9.31;100.00
14594;BME280;7383;52.354;9.756;2023-04-27T06:56:43;-12618.53;;;9.36;100.00
14594;BME280;7383;52.354;9.756;2023-04-27T06:59:09;-12618.34;;;9.35;100.00
14594;BME280;7383;52.354;9.756;2023-04-27T07:01:37;-12619.03;;;9.39;100.00
14594;BME280;7383;52.354;9.756;2023-04-27T07:04:04;-12617.91;;;9.33;100.00
14594;BME280;7383;52.354;9.756;2023-04-27T07:06:31;-12618.69;;;9.37;100.00
14594;BME280;7383;52.354;9.756;2023-04-27T07:08:58;-12619.47;;;9.42;100.00
14594;BME280;7383;52.354;9.756;2023-04-27T07:11:25;-12620.09;;;9.46;100.00
14594;BME280;7383;52.354;9.756;2023-04-27T07:13:51;-12619.22;;;9.40;100.00
14594;BME280;7383;52.354;9.756;2023-04-27T07:16:18;-12618.53;;;9.36;100.00
14594;BME280;7383;52.354;9.756;2023-04-27T07:18:46;-12618.44;;;9.36;100.00
14594;BME280;7383;52.354;9.756;2023-04-27T07:21:13;-12618.44;;;9.36;100.00
14594;BME280;7383;52.354;9.756;2023-04-27T07:23:40;-12619.56;;;9.43;100.00
14594;BME280;7383;52.354;9.756;2023-04-27T07:26:07;-12619.47;;;9.42;100.00
14594;BME280;7383;52.354;9.756;2023-04-27T07:28:34;-12620.19;;;9.46;100.00
14594;BME280;7383;52.354;9.756;2023-04-27T07:31:03;-12620.28;;;9.47;100.00
14594;BME280;7383;52.354;9.756;2023-04-27T07:33:29;-12621.66;;;9.55;100.00
14594;BME280;7383;52.354;9.756;2023-04-27T07:35:57;-12623.25;;;9.64;100.00
14594;BME280;7383;52.354;9.756;2023-04-27T07:38:24;-12625.16;;;9.75;100.00
14594;BME280;7383;52.354;9.756;2023-04-27T07:40:50;-12627.00;;;9.85;100.00
14594;BME280;7383;52.354;9.756;2023-04-27T07:43:17;-12628.59;;;9.95;100.00
14594;BME280;7383;52.354;9.756;2023-04-27T07:45:44;-12630.84;;;10.08;100.00
14594;BME280;7383;52.354;9.756;2023-04-27T07:48:10;-12632.44;;;10.17;100.00
14594;BME280;7383;52.354;9.756;2023-04-27T07:50:37;-12633.47;;;10.23;100.00
14594;BME280;7383;52.354;9.756;2023-04-27T07:53:05;-12633.13;;;10.21;100.00
14594;BME280;7383;52.354;9.756;2023-04-27T07:55:31;-12633.91;;;10.25;100.00
14594;BME280;7383;52.354;9.756;2023-04-27T07:57:58;-12633.31;;;10.22;100.00
14594;BME280;7383;52.354;9.756;2023-04-27T08:00:25;-12633.38;;;10.22;100.00
14594;BME280;7383;52.354;9.756;2023-04-27T08:02:52;-12632.34;;;10.16;100.00
14594;BME280;7383;52.354;9.756;2023-04-27T08:05:19;-12632.94;;;10.20;100.00
14594;BME280;7383;52.354;9.756;2023-04-27T08:07:46;-12633.91;;;10.25;100.00
14594;BME280;7383;52.354;9.756;2023-04-27T08:10:13;-12634.34;;;10.28;100.00
14594;BME280;7383;52.354;9.756;2023-04-27T08:12:43;-12635.66;;;10.35;100.00
14594;BME280;7383;52.354;9.756;2023-04-27T08:15:11;-12635.31;;;10.33;100.00
14594;BME280;7383;52.354;9.756;2023-04-27T08:17:42;-12634.44;;;10.28;100.00
14594;BME280;7383;52.354;9.756;2023-04-27T08:20:11;-12634.63;;;10.29;100.00
14594;BME280;7383;52.354;9.756;2023-04-27T08:22:38;-12636.44;;;10.40;100.00
14594;BME280;7383;52.354;9.756;2023-04-27T08:25:06;-12637.94;;;10.49;100.00
14594;BME280;7383;52.354;9.756;2023-04-27T08:27:37;-12638.03;;;10.49;100.00
14594;BME280;7383;52.354;9.756;2023-04-27T08:30:05;-12638.09;;;10.50;100.00
14594;BME280;7383;52.354;9.756;2023-04-27T08:32:33;-12639.50;;;10.58;100.00
14594;BME280;7383;52.354;9.756;2023-04-27T08:34:59;-12640.28;;;10.62;100.00
14594;BME280;7383;52.354;9.756;2023-04-27T08:37:26;-12641.25;;;10.68;100.00
14594;BME280;7383;52.354;9.756;2023-04-27T08:39:52;-12642.66;;;10.76;100.00
14594;BME280;7383;52.354;9.756;2023-04-27T08:42:21;-12644.84;;;10.89;100.00
14594;BME280;7383;52.354;9.756;2023-04-27T08:44:52;-12645.97;;;10.95;100.00
14594;BME280;7383;52.354;9.756;2023-04-27T08:47:21;-12647.00;;;11.01;100.00
14594;BME280;7383;52.354;9.756;2023-04-27T08:50:02;-12647.81;;;11.06;100.00
14594;BME280;7383;52.354;9.756;2023-04-27T08:52:28;-12648.41;;;11.09;100.00
14594;BME280;7383;52.354;9.756;2023-04-27T08:54:55;-12646.50;;;10.98;100.00
14594;BME280;7383;52.354;9.756;2023-04-27T08:57:24;-12645.09;;;10.90;100.00
14594;BME280;7383;52.354;9.756;2023-04-27T08:59:59;-12646.94;;;11.01;100.00
14594;BME280;7383;52.354;9.756;2023-04-27T09:02:28;-12647.63;;;11.05;100.00
14594;BME280;7383;52.354;9.756;2023-04-27T09:04:55;-12648.41;;;11.09;100.00
14594;BME280;7383;52.354;9.756;2023-04-27T09:07:28;-12648.94;;;11.12;100.00
14594;BME280;7383;52.354;9.756;2023-04-27T09:10:03;-12651.13;;;11.25;100.00
14594;BME280;7383;52.354;9.756;2023-04-27T09:12:31;-12651.38;;;11.26;100.00
14594;BME280;7383;52.354;9.756;2023-04-27T09:15:02;-12653.28;;;11.38;100.00
14594;BME280;7383;52.354;9.756;2023-04-27T09:17:30;-12655.38;;;11.50;100.00
14594;BME280;7383;52.354;9.756;2023-04-27T09:20:04;-12656.44;;;11.56;100.00
14594;BME280;7383;52.354;9.756;2023-04-27T09:22:41;-12657.47;;;11.62;100.00
14594;BME280;7383;52.354;9.756;2023-04-27T09:25:35;-12658.19;;;11.66;100.00
14594;BME280;7383;52.354;9.756;2023-04-27T09:28:02;-12656.09;;;11.54;100.00
14594;BME280;7383;52.354;9.756;2023-04-27T09:30:30;-12654.09;;;11.42;100.00
14594;BME280;7383;52.354;9.756;2023-04-27T09:32:58;-12654.00;;;11.42;100.00
14594;BME280;7383;52.354;9.756;2023-04-27T09:35:31;-12654.94;;;11.47;100.00
14594;BME280;7383;52.354;9.756;2023-04-27T09:37:59;-12655.91;;;11.53;100.00
14594;BME280;7383;52.354;9.756;2023-04-27T09:40:27;-12656.69;;;11.57;100.00
14594;BME280;7383;52.354;9.756;2023-04-27T09:42:57;-12655.47;;;11.50;100.00
14594;BME280;7383;52.354;9.756;2023-04-27T09:45:25;-12653.81;;;11.41;100.00
14594;BME280;7383;52.354;9.756;2023-04-27T09:47:56;-12655.81;;;11.52;100.00
14594;BME280;7383;52.354;9.756;2023-04-27T09:50:23;-12657.56;;;11.62;100.00
14594;BME280;7383;52.354;9.756;2023-04-27T09:52:50;-12656.19;;;11.54;100.00
14594;BME280;7383;52.354;9.756;2023-04-27T09:55:19;-12656.88;;;11.58;100.00
14594;BME280;7383;52.354;9.756;2023-04-27T09:57:53;-12659.22;;;11.72;100.00
14594;BME280;7383;52.354;9.756;2023-04-27T10:00:32;-12661.31;;;11.84;100.00
14594;BME280;7383;52.354;9.756;2023-04-27T10:03:14;-12658.78;;;11.69;100.00
14594;BME280;7383;52.354;9.756;2023-04-27T10:06:15;-12657.31;;;11.61;100.00
14594;BME280;7383;52.354;9.756;2023-04-27T10:08:49;-12659.84;;;11.75;100.00
14594;BME280;7383;52.354;9.756;2023-04-27T10:11:16;-12662.53;;;11.91;100.00
14594;BME280;7383;52.354;9.756;2023-04-27T10:13:50;-12663.75;;;11.98;100.00
14594;BME280;7383;52.354;9.756;2023-04-27T10:16:20;-12662.97;;;11.94;100.00
14594;BME280;7383;52.354;9.756;2023-04-27T10:18:52;-12662.19;;;11.89;100.00
14594;BME280;7383;52.354;9.756;2023-04-27T10:21:19;-12660.53;;;11.79;100.00
14594;BME280;7383;52.354;9.756;2023-04-27T10:23:47;-12660.88;;;11.81;100.00
14594;BME280;7383;52.354;9.756;2023-04-27T10:26:22;-12661.50;;;11.85;100.00
14594;BME280;7383;52.354;9.756;2023-04-27T10:28:56;-12662.91;;;11.93;100.00
14594;BME280;7383;52.354;9.756;2023-04-27T10:31:29;-12662.72;;;11.92;100.00
14594;BME280;7383;52.354;9.756;2023-04-27T10:34:15;-12663.16;;;11.95;100.00
14594;BME280;7383;52.354;9.756;2023-04-27T10:36:46;-12663.25;;;11.95;100.00
14594;BME280;7383;52.354;9.756;2023-04-27T10:39:15;-12663.94;;;11.99;100.00
14594;BME280;7383;52.354;9.756;2023-04-27T10:41:48;-12667.06;;;12.17;100.00
14594;BME280;7383;52.354;9.756;2023-04-27T10:44:16;-12669.84;;;12.33;100.00
14594;BME280;7383;52.354;9.756;2023-04-27T10:46:50;-12673.53;;;12.55;100.00
14594;BME280;7383;52.354;9.756;2023-04-27T10:49:21;-12677.34;;;12.77;100.00
14594;BME280;7383;52.354;9.756;2023-04-27T10:51:50;-12676.91;;;12.74;100.00
14594;BME280;7383;52.354;9.756;2023-04-27T10:54:17;-12679.63;;;12.90;100.00
14594;BME280;7383;52.354;9.756;2023-04-27T10:56:44;-12682.41;;;13.06;100.00
14594;BME280;7383;52.354;9.756;2023-04-27T10:59:11;-12682.47;;;13.07;100.00
14594;BME280;7383;52.354;9.756;2023-04-27T11:01:38;-12683.69;;;13.14;100.00
14594;BME280;7383;52.354;9.756;2023-04-27T11:04:10;-12685.44;;;13.24;100.00
14594;BME280;7383;52.354;9.756;2023-04-27T11:06:43;-12686.75;;;13.31;100.00
14594;BME280;7383;52.354;9.756;2023-04-27T11:09:10;-12690.41;;;13.53;100.00
14594;BME280;7383;52.354;9.756;2023-04-27T11:11:42;-12692.41;;;13.64;100.00
14594;BME280;7383;52.354;9.756;2023-04-27T11:14:13;-12691.44;;;13.59;100.00
14594;BME280;7383;52.354;9.756;2023-04-27T11:16:45;-12686.13;;;13.28;100.00
14594;BME280;7383;52.354;9.756;2023-04-27T11:19:11;-12683.00;;;13.10;100.00
14594;BME280;7383;52.354;9.756;2023-04-27T11:21:38;-12686.22;;;13.28;100.00
14594;BME280;7383;52.354;9.756;2023-04-27T11:24:07;-12690.75;;;13.55;100.00
14594;BME280;7383;52.354;9.756;2023-04-27T11:26:35;-12691.88;;;13.61;100.00
14594;BME280;7383;52.354;9.756;2023-04-27T11:29:03;-12694.56;;;13.77;100.00
14594;BME280;7383;52.354;9.756;2023-04-27T11:31:40;-12695.53;;;13.82;100.00
14594;BME280;7383;52.354;9.756;2023-04-27T11:34:08;-12692.75;;;13.66;100.00
14594;BME280;7383;52.354;9.756;2023-04-27T11:36:35;-12691.34;;;13.58;100.00
14594;BME280;7383;52.354;9.756;2023-04-27T11:39:02;-12691.00;;;13.56;100.00
14594;BME280;7383;52.354;9.756;2023-04-27T11:41:35;-12690.06;;;13.51;100.00
14594;BME280;7383;52.354;9.756;2023-04-27T11:44:04;-12688.50;;;13.42;100.00
14594;BME280;7383;52.354;9.756;2023-04-27T11:46:38;-12687.78;;;13.38;100.00
14594;BME280;7383;52.354;9.756;2023-04-27T11:49:06;-12687.09;;;13.34;100.00
14594;BME280;7383;52.354;9.756;2023-04-27T11:51:35;-12682.56;;;13.07;100.00
14594;BME280;7383;52.354;9.756;2023-04-27T11:54:10;-12680.91;;;12.98;100.00
14594;BME280;7383;52.354;9.756;2023-04-27T11:56:40;-12683.19;;;13.11;100.00
14594;BME280;7383;52.354;9.756;2023-04-27T11:59:17;-12684.75;;;13.20;100.00
14594;BME280;7383;52.354;9.756;2023-04-27T12:01:46;-12688.13;;;13.40;100.00
14594;BME280;7383;52.354;9.756;2023-04-27T12:04:13;-12690.06;;;13.51;100.00
14594;BME280;7383;52.354;9.756;2023-04-27T12:06:40;-12691.78;;;13.61;100.00
14594;BME280;7383;52.354;9.756;2023-04-27T12:09:07;-12695.19;;;13.80;100.00
14594;BME280;7383;52.354;9.756;2023-04-27T12:11:33;-12699.88;;;14.08;100.00
14594;BME280;7383;52.354;9.756;2023-04-27T12:14:02;-12706.38;;;14.46;100.00
14594;BME280;7383;52.354;9.756;2023-04-27T12:16:28;-12713.84;;;14.89;100.00
14594;BME280;7383;52.354;9.756;2023-04-27T12:18:55;-12719.66;;;15.23;100.00
14594;BME280;7383;52.354;9.756;2023-04-27T12:21:21;-12720.59;;;15.28;100.00
14594;BME280;7383;52.354;9.756;2023-04-27T12:23:48;-12719.75;;;15.23;100.00
14594;BME280;7383;52.354;9.756;2023-04-27T12:26:15;-12720.19;;;15.26;100.00
14594;BME280;7383;52.354;9.756;2023-04-27T12:28:41;-12723.72;;;15.47;100.00
14594;BME280;7383;52.354;9.756;2023-04-27T12:31:12;-12726.84;;;15.65;100.00
14594;BME280;7383;52.354;9.756;2023-04-27T12:33:40;-12727.47;;;15.68;100.00
14594;BME280;7383;52.354;9.756;2023-04-27T12:36:07;-12731.69;;;15.93;100.00
14594;BME280;7383;52.354;9.756;2023-04-27T12:38:33;-12727.88;;;15.71;100.00
14594;BME280;7383;52.354;9.756;2023-04-27T12:41:01;-12727.97;;;15.71;100.00
14594;BME280;7383;52.354;9.756;2023-04-27T12:43:28;-12729.78;;;15.82;100.00
14594;BME280;7383;52.354;9.756;2023-04-27T12:45:54;-12733.00;;;16.01;100.00
14594;BME280;7383;52.354;9.756;2023-04-27T12:48:22;-12737.41;;;16.27;100.00
14594;BME280;7383;52.354;9.756;2023-04-27T12:50:48;-12741.81;;;16.52;100.00
14594;BME280;7383;52.354;9.756;2023-04-27T12:53:15;-12748.31;;;16.90;100.00
14594;BME280;7383;52.354;9.756;2023-04-27T12:55:42;-12754.63;;;17.27;100.00
14594;BME280;7383;52.354;9.756;2023-04-27T12:58:08;-12759.13;;;17.53;100.00
14594;BME280;7383;52.354;9.756;2023-04-27T13:00:35;-12762.06;;;17.70;100.00
14594;BME280;7383;52.354;9.756;2023-04-27T13:03:02;-12764.38;;;17.84;100.00
14594;BME280;7383;52.354;9.756;2023-04-27T13:05:31;-12767.47;;;18.02;100.00